sensor_id;sensor_type;location;lat;lon;timestamp;P1;durP1;ratioP1;P2;durP2;ratioP2
51034;SDS011;37062;52.546;13.230;2023-02-01T00:01:18;16.40;;;3.67;;
51034;SDS011;37062;52.546;13.230;2023-02-01T00:03:46;17.25;;;3.40;;
51034;SDS011;37062;52.546;13.230;2023-02-01T00:06:15;16.27;;;3.58;;
51034;SDS011;37062;52.546;13.230;2023-02-01T00:08:43;14.93;;;3.47;;
51034;SDS011;37062;52.546;13.230;2023-02-01T00:11:11;18.50;;;3.53;;
51034;SDS011;37062;52.546;13.230;2023-02-01T00:13:40;19.48;;;3.08;;
51034;SDS011;37062;52.546;13.230;2023-02-01T00:16:09;16.77;;;3.57;;
51034;SDS011;37062;52.546;13.230;2023-02-01T00:18:39;16.97;;;3.07;;
51034;SDS011;37062;52.546;13.230;2023-02-01T00:21:07;15.07;;;3.07;;
51034;SDS011;37062;52.546;13.230;2023-02-01T00:23:38;15.13;;;3.10;;
51034;SDS011;37062;52.546;13.230;2023-02-01T00:26:07;13.97;;;2.70;;
51034;SDS011;37062;52.546;13.230;2023-02-01T00:28:40;15.03;;;3.50;;
51034;SDS011;37062;52.546;13.230;2023-02-01T00:31:08;15.37;;;3.80;;
51034;SDS011;37062;52.546;13.230;2023-02-01T00:33:37;16.80;;;3.00;;
51034;SDS011;37062;52.546;13.230;2023-02-01T00:36:06;16.63;;;3.93;;
51034;SDS011;37062;52.546;13.230;2023-02-01T00:38:36;15.50;;;3.43;;
51034;SDS011;37062;52.546;13.230;2023-02-01T00:41:07;13.87;;;2.77;;
51034;SDS011;37062;52.546;13.230;2023-02-01T00:43:38;12.50;;;2.40;;
51034;SDS011;37062;52.546;13.230;2023-02-01T00:46:06;15.67;;;2.87;;
51034;SDS011;37062;52.546;13.230;2023-02-01T00:48:35;18.30;;;3.33;;
51034;SDS011;37062;52.546;13.230;2023-02-01T00:51:04;11.40;;;2.43;;
51034;SDS011;37062;52.546;13.230;2023-02-01T00:53:33;14.93;;;2.43;;
51034;SDS011;37062;52.546;13.230;2023-02-01T00:56:03;15.80;;;2.70;;
51034;SDS011;37062;52.546;13.230;2023-02-01T00:58:32;11.40;;;2.83;;
51034;SDS011;37062;52.546;13.230;2023-02-01T01:01:01;20.33;;;3.67;;
51034;SDS011;37062;52.546;13.230;2023-02-01T01:03:31;19.00;;;3.63;;
51034;SDS011;37062;52.546;13.230;2023-02-01T01:06:02;11.77;;;2.43;;
51034;SDS011;37062;52.546;13.230;2023-02-01T01:08:32;12.23;;;3.13;;
51034;SDS011;37062;52.546;13.230;2023-02-01T01:11:04;14.23;;;2.90;;
51034;SDS011;37062;52.546;13.230;2023-02-01T01:13:33;10.27;;;2.43;;
51034;SDS011;37062;52.546;13.230;2023-02-01T01:16:02;13.60;;;2.53;;
51034;SDS011;37062;52.546;13.230;2023-02-01T01:18:32;14.83;;;2.70;;
51034;SDS011;37062;52.546;13.230;2023-02-01T01:21:01;10.27;;;2.40;;
51034;SDS011;37062;52.546;13.230;2023-02-01T01:23:31;13.10;;;2.50;;
51034;SDS011;37062;52.546;13.230;2023-02-01T01:25:59;14.00;;;2.90;;
51034;SDS011;37062;52.546;13.230;2023-02-01T01:28:28;16.03;;;2.30;;
51034;SDS011;37062;52.546;13.230;2023-02-01T01:30:57;18.40;;;3.50;;
51034;SDS011;37062;52.546;13.230;2023-02-01T01:33:25;16.13;;;3.23;;
51034;SDS011;37062;52.546;13.230;2023-02-01T01:35:53;15.33;;;2.67;;
51034;SDS011;37062;52.546;13.230;2023-02-01T01:38:21;17.03;;;2.40;;
51034;SDS011;37062;52.546;13.230;2023-02-01T01:40:49;12.20;;;2.80;;
51034;SDS011;37062;52.546;13.230;2023-02-01T01:43:18;17.03;;;2.93;;
51034;SDS011;37062;52.546;13.230;2023-02-01T01:45:51;13.93;;;3.47;;
51034;SDS011;37062;52.546;13.230;2023-02-01T01:48:20;19.10;;;2.77;;
51034;SDS011;37062;52.546;13.230;2023-02-01T01:50:54;13.13;;;2.57;;
51034;SDS011;37062;52.546;13.230;2023-02-01T01:53:27;18.33;;;3.13;;
51034;SDS011;37062;52.546;13.230;2023-02-01T01:55:59;14.87;;;3.33;;
51034;SDS011;37062;52.546;13.230;2023-02-01T01:58:28;14.67;;;3.23;;
51034;SDS011;37062;52.546;13.230;2023-02-01T02:01:01;15.67;;;3.10;;
51034;SDS011;37062;52.546;13.230;2023-02-01T02:03:30;10.40;;;2.87;;
51034;SDS011;37062;52.546;13.230;2023-02-01T02:06:02;14.10;;;3.20;;
51034;SDS011;37062;52.546;13.230;2023-02-01T02:08:34;13.33;;;2.63;;
51034;SDS011;37062;52.546;13.230;2023-02-01T02:11:07;18.33;;;3.37;;
51034;SDS011;37062;52.546;13.230;2023-02-01T02:13:36;15.02;;;3.40;;
51034;SDS011;37062;52.546;13.230;2023-02-01T02:16:16;18.00;;;3.67;;
51034;SDS011;37062;52.546;13.230;2023-02-01T02:18:55;15.17;;;3.07;;
51034;SDS011;37062;52.546;13.230;2023-02-01T02:21:36;14.63;;;3.17;;
51034;SDS011;37062;52.546;13.230;2023-02-01T02:24:34;14.87;;;2.53;;
51034;SDS011;37062;52.546;13.230;2023-02-01T02:27:39;11.53;;;2.17;;
51034;SDS011;37062;52.546;13.230;2023-02-01T02:30:30;15.00;;;2.70;;
51034;SDS011;37062;52.546;13.230;2023-02-01T02:36:17;15.07;;;2.87;;
51034;SDS011;37062;52.546;13.230;2023-02-01T02:38:53;15.17;;;2.90;;
51034;SDS011;37062;52.546;13.230;2023-02-01T02:41:30;13.40;;;2.90;;
51034;SDS011;37062;52.546;13.230;2023-02-01T02:44:20;15.50;;;3.07;;
51034;SDS011;37062;52.546;13.230;2023-02-01T02:47:15;17.75;;;3.03;;
51034;SDS011;37062;52.546;13.230;2023-02-01T02:50:04;20.07;;;3.43;;
51034;SDS011;37062;52.546;13.230;2023-02-01T02:52:57;13.25;;;2.78;;
51034;SDS011;37062;52.546;13.230;2023-02-01T02:55:49;13.82;;;3.08;;
51034;SDS011;37062;52.546;13.230;2023-02-01T02:58:29;16.47;;;3.20;;
51034;SDS011;37062;52.546;13.230;2023-02-01T03:01:15;15.73;;;3.73;;
51034;SDS011;37062;52.546;13.230;2023-02-01T03:04:00;13.67;;;2.93;;
51034;SDS011;37062;52.546;13.230;2023-02-01T03:06:38;13.60;;;3.33;;
51034;SDS011;37062;52.546;13.230;2023-02-01T03:09:08;10.33;;;2.70;;
51034;SDS011;37062;52.546;13.230;2023-02-01T03:11:40;13.70;;;3.00;;
51034;SDS011;37062;52.546;13.230;2023-02-01T03:14:29;18.30;;;3.20;;
51034;SDS011;37062;52.546;13.230;2023-02-01T03:17:03;20.60;;;3.37;;
51034;SDS011;37062;52.546;13.230;2023-02-01T03:19:39;14.07;;;3.43;;
51034;SDS011;37062;52.546;13.230;2023-02-01T03:22:16;10.97;;;3.03;;
51034;SDS011;37062;52.546;13.230;2023-02-01T03:24:49;15.43;;;3.50;;
51034;SDS011;37062;52.546;13.230;2023-02-01T03:27:20;14.13;;;3.50;;
51034;SDS011;37062;52.546;13.230;2023-02-01T03:29:54;17.43;;;2.93;;
51034;SDS011;37062;52.546;13.230;2023-02-01T03:32:26;16.25;;;3.22;;
51034;SDS011;37062;52.546;13.230;2023-02-01T03:34:55;14.93;;;3.80;;
51034;SDS011;37062;52.546;13.230;2023-02-01T03:37:26;18.48;;;3.67;;
51034;SDS011;37062;52.546;13.230;2023-02-01T03:39:57;16.50;;;3.20;;
51034;SDS011;37062;52.546;13.230;2023-02-01T03:42:32;18.42;;;3.50;;
51034;SDS011;37062;52.546;13.230;2023-02-01T03:45:06;23.73;;;3.47;;
51034;SDS011;37062;52.546;13.230;2023-02-01T03:47:39;17.90;;;3.50;;
51034;SDS011;37062;52.546;13.230;2023-02-01T03:50:11;16.77;;;3.43;;
51034;SDS011;37062;52.546;13.230;2023-02-01T03:52:45;14.90;;;3.97;;
51034;SDS011;37062;52.546;13.230;2023-02-01T03:55:16;15.20;;;3.77;;
51034;SDS011;37062;52.546;13.230;2023-02-01T03:57:49;14.93;;;3.23;;
51034;SDS011;37062;52.546;13.230;2023-02-01T04:00:23;17.90;;;3.50;;
51034;SDS011;37062;52.546;13.230;2023-02-01T04:02:54;15.67;;;2.83;;
51034;SDS011;37062;52.546;13.230;2023-02-01T04:05:23;19.23;;;3.40;;
51034;SDS011;37062;52.546;13.230;2023-02-01T04:08:00;12.03;;;2.90;;
51034;SDS011;37062;52.546;13.230;2023-02-01T04:10:28;13.27;;;3.20;;
51034;SDS011;37062;52.546;13.230;2023-02-01T04:12:56;18.70;;;3.83;;
51034;SDS011;37062;52.546;13.230;2023-02-01T04:15:24;12.87;;;2.67;;
51034;SDS011;37062;52.546;13.230;2023-02-01T04:17:53;19.58;;;3.58;;
51034;SDS011;37062;52.546;13.230;2023-02-01T04:20:21;23.13;;;3.77;;
51034;SDS011;37062;52.546;13.230;2023-02-01T04:22:49;18.77;;;3.73;;
51034;SDS011;37062;52.546;13.230;2023-02-01T04:25:19;15.20;;;3.67;;
51034;SDS011;37062;52.546;13.230;2023-02-01T04:27:47;15.52;;;3.67;;
51034;SDS011;37062;52.546;13.230;2023-02-01T04:30:16;17.40;;;3.20;;
51034;SDS011;37062;52.546;13.230;2023-02-01T04:32:44;18.48;;;3.72;;
51034;SDS011;37062;52.546;13.230;2023-02-01T04:35:13;18.85;;;3.67;;
51034;SDS011;37062;52.546;13.230;2023-02-01T04:37:41;15.03;;;3.50;;
51034;SDS011;37062;52.546;13.230;2023-02-01T04:40:09;17.45;;;3.53;;
51034;SDS011;37062;52.546;13.230;2023-02-01T04:42:40;24.50;;;4.15;;
51034;SDS011;37062;52.546;13.230;2023-02-01T04:45:08;17.38;;;3.95;;
51034;SDS011;37062;52.546;13.230;2023-02-01T04:47:37;19.70;;;4.47;;
51034;SDS011;37062;52.546;13.230;2023-02-01T04:50:05;15.65;;;3.50;;
51034;SDS011;37062;52.546;13.230;2023-02-01T04:52:36;14.05;;;3.90;;
51034;SDS011;37062;52.546;13.230;2023-02-01T04:55:05;16.10;;;3.10;;
51034;SDS011;37062;52.546;13.230;2023-02-01T04:57:33;22.08;;;3.67;;
51034;SDS011;37062;52.546;13.230;2023-02-01T05:00:03;12.57;;;3.15;;
51034;SDS011;37062;52.546;13.230;2023-02-01T05:02:33;20.30;;;3.45;;
51034;SDS011;37062;52.546;13.230;2023-02-01T05:05:01;15.70;;;3.50;;
51034;SDS011;37062;52.546;13.230;2023-02-01T05:07:29;14.85;;;4.05;;
51034;SDS011;37062;52.546;13.230;2023-02-01T05:09:57;17.65;;;3.35;;
51034;SDS011;37062;52.546;13.230;2023-02-01T05:12:26;15.35;;;3.15;;
51034;SDS011;37062;52.546;13.230;2023-02-01T05:15:13;25.65;;;5.43;;
51034;SDS011;37062;52.546;13.230;2023-02-01T05:17:41;14.77;;;3.45;;
51034;SDS011;37062;52.546;13.230;2023-02-01T05:20:09;14.93;;;3.40;;
51034;SDS011;37062;52.546;13.230;2023-02-01T05:22:38;18.02;;;3.28;;
51034;SDS011;37062;52.546;13.230;2023-02-01T05:25:06;13.88;;;3.35;;
51034;SDS011;37062;52.546;13.230;2023-02-01T05:27:35;16.63;;;3.75;;
51034;SDS011;37062;52.546;13.230;2023-02-01T05:30:03;17.33;;;3.67;;
51034;SDS011;37062;52.546;13.230;2023-02-01T05:32:34;11.57;;;3.40;;
51034;SDS011;37062;52.546;13.230;2023-02-01T05:35:02;18.65;;;3.90;;
51034;SDS011;37062;52.546;13.230;2023-02-01T05:37:30;17.67;;;3.45;;
51034;SDS011;37062;52.546;13.230;2023-02-01T05:39:58;15.75;;;3.90;;
51034;SDS011;37062;52.546;13.230;2023-02-01T05:42:26;14.48;;;3.70;;
51034;SDS011;37062;52.546;13.230;2023-02-01T05:44:54;16.20;;;4.30;;
51034;SDS011;37062;52.546;13.230;2023-02-01T05:47:23;18.80;;;4.55;;
51034;SDS011;37062;52.546;13.230;2023-02-01T05:49:52;14.82;;;3.58;;
51034;SDS011;37062;52.546;13.230;2023-02-01T05:52:20;12.90;;;3.47;;
51034;SDS011;37062;52.546;13.230;2023-02-01T05:54:48;15.27;;;3.75;;
51034;SDS011;37062;52.546;13.230;2023-02-01T05:57:16;16.13;;;3.30;;
51034;SDS011;37062;52.546;13.230;2023-02-01T05:59:44;19.30;;;3.40;;
51034;SDS011;37062;52.546;13.230;2023-02-01T06:02:13;16.42;;;4.07;;
51034;SDS011;37062;52.546;13.230;2023-02-01T06:04:42;16.77;;;3.78;;
51034;SDS011;37062;52.546;13.230;2023-02-01T06:07:11;12.40;;;3.93;;
51034;SDS011;37062;52.546;13.230;2023-02-01T06:09:39;16.10;;;3.30;;
51034;SDS011;37062;52.546;13.230;2023-02-01T06:12:08;21.48;;;4.25;;
51034;SDS011;37062;52.546;13.230;2023-02-01T06:14:36;13.60;;;3.63;;
51034;SDS011;37062;52.546;13.230;2023-02-01T06:17:04;16.30;;;3.67;;
51034;SDS011;37062;52.546;13.230;2023-02-01T06:19:33;17.75;;;3.72;;
51034;SDS011;37062;52.546;13.230;2023-02-01T06:22:01;16.70;;;3.93;;
51034;SDS011;37062;52.546;13.230;2023-02-01T06:24:33;13.00;;;3.60;;
51034;SDS011;37062;52.546;13.230;2023-02-01T06:27:01;13.35;;;3.60;;
51034;SDS011;37062;52.546;13.230;2023-02-01T06:29:30;14.38;;;3.42;;
51034;SDS011;37062;52.546;13.230;2023-02-01T06:31:58;14.95;;;3.28;;
51034;SDS011;37062;52.546;13.230;2023-02-01T06:34:26;13.55;;;3.47;;
51034;SDS011;37062;52.546;13.230;2023-02-01T06:36:54;12.40;;;3.33;;
51034;SDS011;37062;52.546;13.230;2023-02-01T06:39:22;12.93;;;3.83;;
51034;SDS011;37062;52.546;13.230;2023-02-01T06:41:52;16.15;;;3.25;;
51034;SDS011;37062;52.546;13.230;2023-02-01T06:44:20;14.07;;;3.42;;
51034;SDS011;37062;52.546;13.230;2023-02-01T06:46:48;17.10;;;3.85;;
51034;SDS011;37062;52.546;13.230;2023-02-01T06:49:17;19.58;;;4.70;;
51034;SDS011;37062;52.546;13.230;2023-02-01T06:51:46;15.85;;;4.28;;
51034;SDS011;37062;52.546;13.230;2023-02-01T06:54:14;19.83;;;4.35;;
51034;SDS011;37062;52.546;13.230;2023-02-01T06:56:42;18.20;;;3.30;;
51034;SDS011;37062;52.546;13.230;2023-02-01T06:59:11;18.27;;;3.67;;
51034;SDS011;37062;52.546;13.230;2023-02-01T07:01:42;15.25;;;3.88;;
51034;SDS011;37062;52.546;13.230;2023-02-01T07:04:11;17.58;;;4.50;;
51034;SDS011;37062;52.546;13.230;2023-02-01T07:06:39;12.00;;;3.45;;
51034;SDS011;37062;52.546;13.230;2023-02-01T07:09:08;17.98;;;3.35;;
51034;SDS011;37062;52.546;13.230;2023-02-01T07:11:38;15.82;;;3.50;;
51034;SDS011;37062;52.546;13.230;2023-02-01T07:14:09;19.15;;;3.88;;
51034;SDS011;37062;52.546;13.230;2023-02-01T07:16:39;22.63;;;4.25;;
51034;SDS011;37062;52.546;13.230;2023-02-01T07:19:07;11.38;;;3.40;;
51034;SDS011;37062;52.546;13.230;2023-02-01T07:21:35;12.93;;;3.40;;
51034;SDS011;37062;52.546;13.230;2023-02-01T07:24:03;15.82;;;3.40;;
51034;SDS011;37062;52.546;13.230;2023-02-01T07:26:32;18.58;;;3.70;;
51034;SDS011;37062;52.546;13.230;2023-02-01T07:29:00;13.02;;;3.25;;
51034;SDS011;37062;52.546;13.230;2023-02-01T07:31:28;12.68;;;3.50;;
51034;SDS011;37062;52.546;13.230;2023-02-01T07:33:58;15.20;;;3.60;;
51034;SDS011;37062;52.546;13.230;2023-02-01T07:36:27;17.17;;;4.07;;
51034;SDS011;37062;52.546;13.230;2023-02-01T07:38:55;15.23;;;3.22;;
51034;SDS011;37062;52.546;13.230;2023-02-01T07:41:25;17.45;;;4.15;;
51034;SDS011;37062;52.546;13.230;2023-02-01T07:43:53;15.07;;;3.60;;
51034;SDS011;37062;52.546;13.230;2023-02-01T07:46:23;15.75;;;3.33;;
51034;SDS011;37062;52.546;13.230;2023-02-01T07:48:51;13.68;;;3.65;;
51034;SDS011;37062;52.546;13.230;2023-02-01T07:51:20;12.88;;;3.80;;
51034;SDS011;37062;52.546;13.230;2023-02-01T07:53:50;13.18;;;3.22;;
51034;SDS011;37062;52.546;13.230;2023-02-01T07:56:21;12.93;;;3.17;;
51034;SDS011;37062;52.546;13.230;2023-02-01T07:58:50;11.95;;;3.30;;
51034;SDS011;37062;52.546;13.230;2023-02-01T08:01:19;11.00;;;2.97;;
51034;SDS011;37062;52.546;13.230;2023-02-01T08:03:48;15.65;;;3.30;;
51034;SDS011;37062;52.546;13.230;2023-02-01T08:06:17;15.13;;;2.97;;
51034;SDS011;37062;52.546;13.230;2023-02-01T08:08:48;12.25;;;2.70;;
51034;SDS011;37062;52.546;13.230;2023-02-01T08:11:17;11.90;;;2.53;;
51034;SDS011;37062;52.546;13.230;2023-02-01T08:13:46;13.27;;;2.88;;
51034;SDS011;37062;52.546;13.230;2023-02-01T08:16:16;8.88;;;2.97;;
51034;SDS011;37062;52.546;13.230;2023-02-01T08:18:45;9.48;;;2.72;;
51034;SDS011;37062;52.546;13.230;2023-02-01T08:21:14;11.43;;;2.57;;
51034;SDS011;37062;52.546;13.230;2023-02-01T08:23:44;9.85;;;2.75;;
51034;SDS011;37062;52.546;13.230;2023-02-01T08:26:14;8.93;;;2.80;;
51034;SDS011;37062;52.546;13.230;2023-02-01T08:28:44;10.38;;;2.25;;
51034;SDS011;37062;52.546;13.230;2023-02-01T08:31:14;8.33;;;2.50;;
51034;SDS011;37062;52.546;13.230;2023-02-01T08:33:44;5.70;;;2.30;;
51034;SDS011;37062;52.546;13.230;2023-02-01T08:36:16;13.02;;;2.85;;
51034;SDS011;37062;52.546;13.230;2023-02-01T08:38:44;13.37;;;3.00;;
51034;SDS011;37062;52.546;13.230;2023-02-01T08:41:15;8.87;;;3.00;;
51034;SDS011;37062;52.546;13.230;2023-02-01T08:43:45;6.13;;;2.40;;
51034;SDS011;37062;52.546;13.230;2023-02-01T08:46:14;10.73;;;2.78;;
51034;SDS011;37062;52.546;13.230;2023-02-01T08:48:42;8.43;;;2.53;;
51034;SDS011;37062;52.546;13.230;2023-02-01T08:51:13;9.55;;;2.67;;
51034;SDS011;37062;52.546;13.230;2023-02-01T08:53:43;7.20;;;2.22;;
51034;SDS011;37062;52.546;13.230;2023-02-01T08:56:13;7.38;;;1.90;;
51034;SDS011;37062;52.546;13.230;2023-02-01T08:58:44;5.57;;;1.80;;
51034;SDS011;37062;52.546;13.230;2023-02-01T09:01:13;3.83;;;1.55;;
51034;SDS011;37062;52.546;13.230;2023-02-01T09:03:43;5.77;;;1.80;;
51034;SDS011;37062;52.546;13.230;2023-02-01T09:06:12;6.22;;;1.98;;
51034;SDS011;37062;52.546;13.230;2023-02-01T09:08:41;6.57;;;1.65;;
51034;SDS011;37062;52.546;13.230;2023-02-01T09:11:11;5.37;;;2.03;;
51034;SDS011;37062;52.546;13.230;2023-02-01T09:13:42;7.30;;;1.80;;
51034;SDS011;37062;52.546;13.230;2023-02-01T09:16:11;4.63;;;1.50;;
51034;SDS011;37062;52.546;13.230;2023-02-01T09:18:39;3.67;;;1.45;;
51034;SDS011;37062;52.546;13.230;2023-02-01T09:21:21;3.20;;;1.27;;
51034;SDS011;37062;52.546;13.230;2023-02-01T09:23:50;2.58;;;1.23;;
51034;SDS011;37062;52.546;13.230;2023-02-01T09:26:18;2.95;;;1.38;;
51034;SDS011;37062;52.546;13.230;2023-02-01T09:28:58;3.25;;;1.13;;
51034;SDS011;37062;52.546;13.230;2023-02-01T09:31:26;3.20;;;1.20;;
51034;SDS011;37062;52.546;13.230;2023-02-01T09:33:55;2.97;;;1.10;;
51034;SDS011;37062;52.546;13.230;2023-02-01T09:36:23;2.65;;;1.25;;
51034;SDS011;37062;52.546;13.230;2023-02-01T09:38:52;4.43;;;1.23;;
51034;SDS011;37062;52.546;13.230;2023-02-01T09:41:24;4.43;;;1.27;;
51034;SDS011;37062;52.546;13.230;2023-02-01T09:44:02;2.58;;;0.98;;
51034;SDS011;37062;52.546;13.230;2023-02-01T09:46:37;2.05;;;1.00;;
51034;SDS011;37062;52.546;13.230;2023-02-01T09:49:09;3.53;;;1.00;;
51034;SDS011;37062;52.546;13.230;2023-02-01T09:51:43;2.78;;;1.00;;
51034;SDS011;37062;52.546;13.230;2023-02-01T09:54:14;3.65;;;0.90;;
51034;SDS011;37062;52.546;13.230;2023-02-01T09:56:46;2.25;;;1.00;;
51034;SDS011;37062;52.546;13.230;2023-02-01T09:59:26;2.13;;;1.00;;
51034;SDS011;37062;52.546;13.230;2023-02-01T10:02:01;4.75;;;1.20;;
51034;SDS011;37062;52.546;13.230;2023-02-01T10:04:32;3.50;;;1.13;;
51034;SDS011;37062;52.546;13.230;2023-02-01T10:07:06;3.55;;;1.08;;
51034;SDS011;37062;52.546;13.230;2023-02-01T10:09:50;3.25;;;1.38;;
51034;SDS011;37062;52.546;13.230;2023-02-01T10:15:44;4.68;;;1.20;;
51034;SDS011;37062;52.546;13.230;2023-02-01T10:21:40;5.82;;;1.52;;
51034;SDS011;37062;52.546;13.230;2023-02-01T10:24:25;7.05;;;1.30;;
51034;SDS011;37062;52.546;13.230;2023-02-01T10:27:02;2.78;;;1.00;;
51034;SDS011;37062;52.546;13.230;2023-02-01T10:29:39;3.60;;;1.17;;
51034;SDS011;37062;52.546;13.230;2023-02-01T10:32:15;3.50;;;1.88;;
51034;SDS011;37062;52.546;13.230;2023-02-01T10:34:44;8.35;;;1.30;;
51034;SDS011;37062;52.546;13.230;2023-02-01T10:37:23;3.30;;;1.20;;
51034;SDS011;37062;52.546;13.230;2023-02-01T10:39:55;4.28;;;1.23;;
51034;SDS011;37062;52.546;13.230;2023-02-01T10:42:25;5.55;;;1.30;;
51034;SDS011;37062;52.546;13.230;2023-02-01T10:44:56;2.60;;;1.02;;
51034;SDS011;37062;52.546;13.230;2023-02-01T10:47:30;3.47;;;1.20;;
51034;SDS011;37062;52.546;13.230;2023-02-01T10:50:02;4.30;;;1.30;;
51034;SDS011;37062;52.546;13.230;2023-02-01T10:52:43;5.85;;;1.30;;
51034;SDS011;37062;52.546;13.230;2023-02-01T10:55:36;5.72;;;1.25;;
51034;SDS011;37062;52.546;13.230;2023-02-01T10:58:10;4.57;;;1.40;;
51034;SDS011;37062;52.546;13.230;2023-02-01T11:00:44;5.22;;;1.50;;
51034;SDS011;37062;52.546;13.230;2023-02-01T11:03:25;6.28;;;1.77;;
51034;SDS011;37062;52.546;13.230;2023-02-01T11:06:11;6.30;;;1.35;;
51034;SDS011;37062;52.546;13.230;2023-02-01T11:08:45;3.88;;;1.48;;
51034;SDS011;37062;52.546;13.230;2023-02-01T11:11:17;8.30;;;1.80;;
51034;SDS011;37062;52.546;13.230;2023-02-01T11:13:51;8.13;;;1.90;;
51034;SDS011;37062;52.546;13.230;2023-02-01T11:16:21;4.80;;;1.73;;
51034;SDS011;37062;52.546;13.230;2023-02-01T11:18:58;6.72;;;1.70;;
51034;SDS011;37062;52.546;13.230;2023-02-01T11:21:27;6.65;;;2.00;;
51034;SDS011;37062;52.546;13.230;2023-02-01T11:23:55;7.07;;;1.60;;
51034;SDS011;37062;52.546;13.230;2023-02-01T11:26:28;7.22;;;1.63;;
51034;SDS011;37062;52.546;13.230;2023-02-01T11:28:59;6.30;;;1.92;;
51034;SDS011;37062;52.546;13.230;2023-02-01T11:31:30;8.02;;;2.45;;
51034;SDS011;37062;52.546;13.230;2023-02-01T11:34:05;7.00;;;1.92;;
51034;SDS011;37062;52.546;13.230;2023-02-01T11:36:36;6.20;;;1.95;;
51034;SDS011;37062;52.546;13.230;2023-02-01T11:39:18;8.90;;;2.20;;
51034;SDS011;37062;52.546;13.230;2023-02-01T11:41:55;7.20;;;1.63;;
51034;SDS011;37062;52.546;13.230;2023-02-01T11:44:29;8.63;;;2.78;;
51034;SDS011;37062;52.546;13.230;2023-02-01T11:47:16;5.95;;;1.83;;
51034;SDS011;37062;52.546;13.230;2023-02-01T11:49:52;4.97;;;1.98;;
51034;SDS011;37062;52.546;13.230;2023-02-01T11:52:26;8.95;;;2.22;;
51034;SDS011;37062;52.546;13.230;2023-02-01T11:55:10;8.25;;;2.20;;
51034;SDS011;37062;52.546;13.230;2023-02-01T11:57:51;5.10;;;1.70;;
51034;SDS011;37062;52.546;13.230;2023-02-01T12:00:40;8.27;;;1.92;;
51034;SDS011;37062;52.546;13.230;2023-02-01T12:03:39;7.60;;;1.73;;
51034;SDS011;37062;52.546;13.230;2023-02-01T12:06:27;7.53;;;2.00;;
51034;SDS011;37062;52.546;13.230;2023-02-01T12:09:15;6.75;;;1.75;;
51034;SDS011;37062;52.546;13.230;2023-02-01T12:11:57;4.85;;;1.60;;
51034;SDS011;37062;52.546;13.230;2023-02-01T12:14:34;4.78;;;1.75;;
51034;SDS011;37062;52.546;13.230;2023-02-01T12:17:18;5.70;;;1.70;;
51034;SDS011;37062;52.546;13.230;2023-02-01T12:20:10;5.05;;;1.50;;
51034;SDS011;37062;52.546;13.230;2023-02-01T12:22:55;5.32;;;1.83;;
51034;SDS011;37062;52.546;13.230;2023-02-01T12:25:32;7.63;;;1.95;;
51034;SDS011;37062;52.546;13.230;2023-02-01T12:31:07;11.35;;;2.00;;
51034;SDS011;37062;52.546;13.230;2023-02-01T12:33:55;5.90;;;1.90;;
51034;SDS011;37062;52.546;13.230;2023-02-01T12:36:46;7.22;;;2.08;;
51034;SDS011;37062;52.546;13.230;2023-02-01T12:39:22;7.10;;;2.55;;
51034;SDS011;37062;52.546;13.230;2023-02-01T12:41:59;7.95;;;2.13;;
51034;SDS011;37062;52.546;13.230;2023-02-01T12:44:32;8.32;;;2.28;;
51034;SDS011;37062;52.546;13.230;2023-02-01T12:47:07;11.82;;;2.53;;
51034;SDS011;37062;52.546;13.230;2023-02-01T12:49:44;10.50;;;2.50;;
51034;SDS011;37062;52.546;13.230;2023-02-01T12:52:17;10.18;;;2.80;;
51034;SDS011;37062;52.546;13.230;2023-02-01T12:54:52;9.82;;;2.50;;
51034;SDS011;37062;52.546;13.230;2023-02-01T12:57:26;10.60;;;2.33;;
51034;SDS011;37062;52.546;13.230;2023-02-01T13:00:00;8.75;;;2.28;;
51034;SDS011;37062;52.546;13.230;2023-02-01T13:02:34;8.27;;;2.05;;
51034;SDS011;37062;52.546;13.230;2023-02-01T13:05:12;9.63;;;2.50;;
51034;SDS011;37062;52.546;13.230;2023-02-01T13:07:45;6.63;;;1.75;;
51034;SDS011;37062;52.546;13.230;2023-02-01T13:10:22;6.20;;;2.03;;
51034;SDS011;37062;52.546;13.230;2023-02-01T13:12:59;6.57;;;1.90;;
51034;SDS011;37062;52.546;13.230;2023-02-01T13:15:38;8.45;;;1.98;;
51034;SDS011;37062;52.546;13.230;2023-02-01T13:18:16;6.30;;;1.80;;
51034;SDS011;37062;52.546;13.230;2023-02-01T13:20:48;6.90;;;2.13;;
51034;SDS011;37062;52.546;13.230;2023-02-01T13:23:23;9.60;;;2.90;;
51034;SDS011;37062;52.546;13.230;2023-02-01T13:25:56;6.20;;;2.40;;
51034;SDS011;37062;52.546;13.230;2023-02-01T13:28:25;8.73;;;2.20;;
51034;SDS011;37062;52.546;13.230;2023-02-01T13:31:05;7.63;;;1.83;;
51034;SDS011;37062;52.546;13.230;2023-02-01T13:33:55;5.93;;;1.88;;
51034;SDS011;37062;52.546;13.230;2023-02-01T13:36:46;8.55;;;2.08;;
51034;SDS011;37062;52.546;13.230;2023-02-01T13:42:29;8.43;;;2.45;;
51034;SDS011;37062;52.546;13.230;2023-02-01T13:45:02;7.18;;;1.63;;
51034;SDS011;37062;52.546;13.230;2023-02-01T13:47:33;7.15;;;2.08;;
51034;SDS011;37062;52.546;13.230;2023-02-01T13:50:12;9.95;;;2.28;;
51034;SDS011;37062;52.546;13.230;2023-02-01T13:52:45;9.80;;;2.65;;
51034;SDS011;37062;52.546;13.230;2023-02-01T13:55:31;8.68;;;3.00;;
51034;SDS011;37062;52.546;13.230;2023-02-01T13:58:04;6.38;;;2.28;;
51034;SDS011;37062;52.546;13.230;2023-02-01T14:04:56;9.57;;;2.83;;
51034;SDS011;37062;52.546;13.230;2023-02-01T14:07:25;9.27;;;2.17;;
51034;SDS011;37062;52.546;13.230;2023-02-01T14:09:54;7.20;;;2.75;;
51034;SDS011;37062;52.546;13.230;2023-02-01T14:15:18;9.45;;;2.38;;
51034;SDS011;37062;52.546;13.230;2023-02-01T14:17:52;6.13;;;2.10;;
51034;SDS011;37062;52.546;13.230;2023-02-01T14:23:16;6.40;;;2.03;;
51034;SDS011;37062;52.546;13.230;2023-02-01T14:25:48;10.75;;;3.10;;
51034;SDS011;37062;52.546;13.230;2023-02-01T14:28:29;10.82;;;3.53;;
51034;SDS011;37062;52.546;13.230;2023-02-01T14:30:59;11.57;;;3.08;;
51034;SDS011;37062;52.546;13.230;2023-02-01T14:33:27;10.68;;;2.90;;
51034;SDS011;37062;52.546;13.230;2023-02-01T14:36:06;9.00;;;3.10;;
51034;SDS011;37062;52.546;13.230;2023-02-01T14:38:37;12.90;;;3.42;;
51034;SDS011;37062;52.546;13.230;2023-02-01T14:41:25;10.52;;;3.33;;
51034;SDS011;37062;52.546;13.230;2023-02-01T14:44:22;12.07;;;4.50;;
51034;SDS011;37062;52.546;13.230;2023-02-01T14:47:04;10.68;;;3.88;;
51034;SDS011;37062;52.546;13.230;2023-02-01T14:49:37;13.98;;;4.13;;
51034;SDS011;37062;52.546;13.230;2023-02-01T14:52:15;8.25;;;3.45;;
51034;SDS011;37062;52.546;13.230;2023-02-01T14:54:49;11.85;;;2.85;;
51034;SDS011;37062;52.546;13.230;2023-02-01T14:57:23;11.45;;;3.30;;
51034;SDS011;37062;52.546;13.230;2023-02-01T14:59:59;8.23;;;2.80;;
51034;SDS011;37062;52.546;13.230;2023-02-01T15:02:34;11.43;;;2.55;;
51034;SDS011;37062;52.546;13.230;2023-02-01T15:05:16;7.45;;;2.13;;
51034;SDS011;37062;52.546;13.230;2023-02-01T15:08:06;7.30;;;1.50;;
51034;SDS011;37062;52.546;13.230;2023-02-01T15:10:49;4.38;;;1.23;;
51034;SDS011;37062;52.546;13.230;2023-02-01T15:13:20;4.55;;;1.50;;
51034;SDS011;37062;52.546;13.230;2023-02-01T15:16:00;6.85;;;2.35;;
51034;SDS011;37062;52.546;13.230;2023-02-01T15:18:34;4.18;;;1.42;;
51034;SDS011;37062;52.546;13.230;2023-02-01T15:21:03;5.05;;;1.70;;
51034;SDS011;37062;52.546;13.230;2023-02-01T15:24:03;5.18;;;1.40;;
51034;SDS011;37062;52.546;13.230;2023-02-01T15:26:38;2.60;;;1.40;;